sensor_id;sensor_type;location;lat;lon;timestamp;pressure;altitude;pressure_sealevel;temperature;humidity
76864;BME280;65834;52.364;9.754;2023-02-26T00:00:20;100880.91;;;-1.38;73.65
76864;BME280;65834;52.364;9.754;2023-02-26T00:02:50;100877.41;;;-1.51;73.95
76864;BME280;65834;52.364;9.754;2023-02-26T00:05:22;100881.66;;;-1.48;74.18
76864;BME280;65834;52.364;9.754;2023-02-26T00:07:51;100892.56;;;-1.53;74.58
76864;BME280;65834;52.364;9.754;2023-02-26T00:10:21;100887.25;;;-1.53;74.71
76864;BME280;65834;52.364;9.754;2023-02-26T00:12:51;100894.28;;;-1.52;74.97
76864;BME280;65834;52.364;9.754;2023-02-26T00:15:22;100898.00;;;-1.54;74.63
76864;BME280;65834;52.364;9.754;2023-02-26T00:17:58;100894.81;;;-1.47;75.03
76864;BME280;65834;52.364;9.754;2023-02-26T00:20:35;100911.34;;;-1.43;74.88
76864;BME280;65834;52.364;9.754;2023-02-26T00:23:07;100907.13;;;-1.33;74.65
76864;BME280;65834;52.364;9.754;2023-02-26T00:25:37;100917.19;;;-1.38;74.97
76864;BME280;65834;52.364;9.754;2023-02-26T00:28:08;100908.81;;;-1.45;75.19
76864;BME280;65834;52.364;9.754;2023-02-26T00:30:38;100915.50;;;-1.52;75.48
76864;BME280;65834;52.364;9.754;2023-02-26T00:33:08;100912.84;;;-1.52;75.78
76864;BME280;65834;52.364;9.754;2023-02-26T00:35:41;100924.84;;;-1.34;75.21
76864;BME280;65834;52.364;9.754;2023-02-26T00:38:12;100926.38;;;-1.17;74.41
76864;BME280;65834;52.364;9.754;2023-02-26T00:40:46;100922.50;;;-1.26;74.62
76864;BME280;65834;52.364;9.754;2023-02-26T00:43:21;100935.34;;;-1.45;75.27
76864;BME280;65834;52.364;9.754;2023-02-26T00:45:57;100946.38;;;-1.51;75.71
76864;BME280;65834;52.364;9.754;2023-02-26T00:48:46;100946.78;;;-1.57;75.96
76864;BME280;65834;52.364;9.754;2023-02-26T00:51:29;100948.00;;;-1.63;76.29
76864;BME280;65834;52.364;9.754;2023-02-26T00:54:03;100949.00;;;-1.63;76.60
76864;BME280;65834;52.364;9.754;2023-02-26T00:56:36;100958.00;;;-1.53;76.41
76864;BME280;65834;52.364;9.754;2023-02-26T00:59:06;100954.31;;;-1.38;76.01
76864;BME280;65834;52.364;9.754;2023-02-26T01:01:35;100950.31;;;-1.31;75.46
76864;BME280;65834;52.364;9.754;2023-02-26T01:04:06;100948.44;;;-1.29;75.59
76864;BME280;65834;52.364;9.754;2023-02-26T01:06:43;100946.38;;;-1.26;75.56
76864;BME280;65834;52.364;9.754;2023-02-26T01:09:17;100955.53;;;-1.30;75.73
76864;BME280;65834;52.364;9.754;2023-02-26T01:11:50;100955.19;;;-1.25;75.36
76864;BME280;65834;52.364;9.754;2023-02-26T01:14:21;100951.91;;;-1.29;75.59
76864;BME280;65834;52.364;9.754;2023-02-26T01:16:56;100957.41;;;-1.32;75.63
76864;BME280;65834;52.364;9.754;2023-02-26T01:19:37;100959.88;;;-1.16;75.42
76864;BME280;65834;52.364;9.754;2023-02-26T01:22:17;100960.00;;;-1.05;75.12
76864;BME280;65834;52.364;9.754;2023-02-26T01:24:50;100960.31;;;-0.97;74.89
76864;BME280;65834;52.364;9.754;2023-02-26T01:27:23;100964.34;;;-0.91;74.72
76864;BME280;65834;52.364;9.754;2023-02-26T01:29:53;100964.78;;;-0.97;74.85
76864;BME280;65834;52.364;9.754;2023-02-26T01:32:26;100963.69;;;-1.08;75.45
76864;BME280;65834;52.364;9.754;2023-02-26T01:35:06;100971.25;;;-1.01;75.17
76864;BME280;65834;52.364;9.754;2023-02-26T01:37:48;100972.94;;;-1.00;75.35
76864;BME280;65834;52.364;9.754;2023-02-26T01:40:33;100974.53;;;-0.98;75.25
76864;BME280;65834;52.364;9.754;2023-02-26T01:43:09;100983.47;;;-0.99;75.43
76864;BME280;65834;52.364;9.754;2023-02-26T01:45:54;100989.31;;;-0.94;75.02
76864;BME280;65834;52.364;9.754;2023-02-26T01:48:35;100993.56;;;-0.91;75.33
76864;BME280;65834;52.364;9.754;2023-02-26T01:51:04;100993.88;;;-0.96;75.47
76864;BME280;65834;52.364;9.754;2023-02-26T01:53:36;100994.75;;;-0.95;75.70
76864;BME280;65834;52.364;9.754;2023-02-26T01:56:11;100998.56;;;-0.87;75.43
76864;BME280;65834;52.364;9.754;2023-02-26T01:58:46;101000.44;;;-0.89;75.49
76864;BME280;65834;52.364;9.754;2023-02-26T02:01:16;101005.88;;;-0.90;75.79
76864;BME280;65834;52.364;9.754;2023-02-26T02:03:46;101006.97;;;-0.80;75.54
76864;BME280;65834;52.364;9.754;2023-02-26T02:06:21;101017.88;;;-0.85;75.44
76864;BME280;65834;52.364;9.754;2023-02-26T02:08:55;101020.03;;;-0.77;75.44
76864;BME280;65834;52.364;9.754;2023-02-26T02:11:25;101019.88;;;-0.88;75.67
76864;BME280;65834;52.364;9.754;2023-02-26T02:14:03;101032.53;;;-0.79;75.48
76864;BME280;65834;52.364;9.754;2023-02-26T02:16:47;101032.53;;;-0.79;75.30
76864;BME280;65834;52.364;9.754;2023-02-26T02:19:42;101037.22;;;-0.70;75.49
76864;BME280;65834;52.364;9.754;2023-02-26T02:22:32;101041.38;;;-0.66;75.19
76864;BME280;65834;52.364;9.754;2023-02-26T02:25:19;101047.63;;;-0.67;75.28
76864;BME280;65834;52.364;9.754;2023-02-26T02:27:59;101048.91;;;-0.73;74.97
76864;BME280;65834;52.364;9.754;2023-02-26T02:30:36;101049.53;;;-0.69;75.08
76864;BME280;65834;52.364;9.754;2023-02-26T02:33:14;101046.97;;;-0.58;74.55
76864;BME280;65834;52.364;9.754;2023-02-26T02:35:49;101050.41;;;-0.69;74.88
76864;BME280;65834;52.364;9.754;2023-02-26T02:38:25;101045.59;;;-0.76;75.13
76864;BME280;65834;52.364;9.754;2023-02-26T02:41:02;101059.66;;;-0.74;75.04
76864;BME280;65834;52.364;9.754;2023-02-26T02:43:35;101061.53;;;-0.76;74.85
76864;BME280;65834;52.364;9.754;2023-02-26T02:46:07;101063.53;;;-0.80;75.09
76864;BME280;65834;52.364;9.754;2023-02-26T02:48:44;101065.25;;;-0.79;74.98
76864;BME280;65834;52.364;9.754;2023-02-26T02:51:20;101070.34;;;-0.76;75.15
76864;BME280;65834;52.364;9.754;2023-02-26T02:53:56;101060.47;;;-0.74;74.84
76864;BME280;65834;52.364;9.754;2023-02-26T02:56:32;101063.97;;;-0.73;74.80
76864;BME280;65834;52.364;9.754;2023-02-26T02:59:10;101073.13;;;-0.77;74.86
76864;BME280;65834;52.364;9.754;2023-02-26T03:01:44;101072.28;;;-0.65;74.63
76864;BME280;65834;52.364;9.754;2023-02-26T03:04:17;101071.50;;;-0.80;75.12
76864;BME280;65834;52.364;9.754;2023-02-26T03:06:47;101074.28;;;-0.81;75.19
76864;BME280;65834;52.364;9.754;2023-02-26T03:09:17;101072.03;;;-0.87;75.32
76864;BME280;65834;52.364;9.754;2023-02-26T03:11:47;101079.69;;;-0.95;75.58
76864;BME280;65834;52.364;9.754;2023-02-26T03:14:16;101084.13;;;-0.96;75.71
76864;BME280;65834;52.364;9.754;2023-02-26T03:17:00;101091.25;;;-0.96;76.11
76864;BME280;65834;52.364;9.754;2023-02-26T03:19:43;101088.69;;;-0.98;75.81
76864;BME280;65834;52.364;9.754;2023-02-26T03:22:24;101086.03;;;-0.98;76.01
76864;BME280;65834;52.364;9.754;2023-02-26T03:25:03;101095.19;;;-0.89;75.50
76864;BME280;65834;52.364;9.754;2023-02-26T03:27:40;101100.41;;;-0.75;75.49
76864;BME280;65834;52.364;9.754;2023-02-26T03:30:16;101105.41;;;-0.83;75.44
76864;BME280;65834;52.364;9.754;2023-02-26T03:32:52;101103.03;;;-0.88;75.52
76864;BME280;65834;52.364;9.754;2023-02-26T03:35:32;101104.34;;;-0.81;75.70
76864;BME280;65834;52.364;9.754;2023-02-26T03:38:07;101111.13;;;-0.77;75.38
76864;BME280;65834;52.364;9.754;2023-02-26T03:40:40;101113.03;;;-0.79;75.44
76864;BME280;65834;52.364;9.754;2023-02-26T03:43:17;101111.69;;;-0.72;75.34
76864;BME280;65834;52.364;9.754;2023-02-26T03:45:50;101118.16;;;-0.76;75.49
76864;BME280;65834;52.364;9.754;2023-02-26T03:48:25;101125.81;;;-0.71;75.56
76864;BME280;65834;52.364;9.754;2023-02-26T03:51:02;101135.88;;;-0.76;75.35
76864;BME280;65834;52.364;9.754;2023-02-26T03:53:53;101138.28;;;-0.59;75.12
76864;BME280;65834;52.364;9.754;2023-02-26T03:56:32;101137.41;;;-0.60;74.47
76864;BME280;65834;52.364;9.754;2023-02-26T03:59:16;101145.69;;;-0.64;74.72
76864;BME280;65834;52.364;9.754;2023-02-26T04:02:10;101145.47;;;-0.61;74.91
76864;BME280;65834;52.364;9.754;2023-02-26T04:04:45;101152.41;;;-0.59;74.92
76864;BME280;65834;52.364;9.754;2023-02-26T04:07:19;101161.31;;;-0.60;74.84
76864;BME280;65834;52.364;9.754;2023-02-26T04:09:50;101154.91;;;-0.70;74.95
76864;BME280;65834;52.364;9.754;2023-02-26T04:12:25;101156.63;;;-0.69;75.14
76864;BME280;65834;52.364;9.754;2023-02-26T04:14:56;101162.16;;;-0.72;75.33
76864;BME280;65834;52.364;9.754;2023-02-26T04:17:28;101167.13;;;-0.67;74.78
76864;BME280;65834;52.364;9.754;2023-02-26T04:19:59;101170.34;;;-0.62;74.74
76864;BME280;65834;52.364;9.754;2023-02-26T04:22:32;101165.69;;;-0.59;74.60
76864;BME280;65834;52.364;9.754;2023-02-26T04:25:03;101176.31;;;-0.59;74.66
76864;BME280;65834;52.364;9.754;2023-02-26T04:27:32;101180.97;;;-0.62;74.97
76864;BME280;65834;52.364;9.754;2023-02-26T04:30:03;101187.75;;;-0.58;74.14
76864;BME280;65834;52.364;9.754;2023-02-26T04:32:33;101188.63;;;-0.58;73.91
76864;BME280;65834;52.364;9.754;2023-02-26T04:35:06;101186.31;;;-0.49;73.51
76864;BME280;65834;52.364;9.754;2023-02-26T04:37:41;101191.06;;;-0.55;73.30
76864;BME280;65834;52.364;9.754;2023-02-26T04:40:11;101190.13;;;-0.53;73.11
76864;BME280;65834;52.364;9.754;2023-02-26T04:42:41;101194.09;;;-0.46;72.63
76864;BME280;65834;52.364;9.754;2023-02-26T04:45:16;101202.34;;;-0.51;72.82
76864;BME280;65834;52.364;9.754;2023-02-26T04:47:45;101208.81;;;-0.55;72.72
76864;BME280;65834;52.364;9.754;2023-02-26T04:50:15;101207.78;;;-0.52;72.66
76864;BME280;65834;52.364;9.754;2023-02-26T04:52:50;101215.84;;;-0.54;72.52
76864;BME280;65834;52.364;9.754;2023-02-26T04:55:20;101227.19;;;-0.52;72.75
76864;BME280;65834;52.364;9.754;2023-02-26T04:57:49;101219.56;;;-0.57;73.12
76864;BME280;65834;52.364;9.754;2023-02-26T05:00:22;101219.59;;;-0.44;72.21
76864;BME280;65834;52.364;9.754;2023-02-26T05:02:52;101230.84;;;-0.53;72.63
76864;BME280;65834;52.364;9.754;2023-02-26T05:05:21;101243.66;;;-0.60;72.54
76864;BME280;65834;52.364;9.754;2023-02-26T05:07:53;101238.47;;;-0.48;72.07
76864;BME280;65834;52.364;9.754;2023-02-26T05:10:23;101237.63;;;-0.49;72.06
76864;BME280;65834;52.364;9.754;2023-02-26T05:12:53;101248.03;;;-0.46;72.07
76864;BME280;65834;52.364;9.754;2023-02-26T05:15:22;101246.81;;;-0.40;71.74
76864;BME280;65834;52.364;9.754;2023-02-26T05:17:52;101251.97;;;-0.51;71.81
76864;BME280;65834;52.364;9.754;2023-02-26T05:20:21;101261.25;;;-0.71;72.22
76864;BME280;65834;52.364;9.754;2023-02-26T05:22:53;101250.38;;;-0.81;72.58
76864;BME280;65834;52.364;9.754;2023-02-26T05:25:23;101258.75;;;-0.87;72.53
76864;BME280;65834;52.364;9.754;2023-02-26T05:27:52;101263.59;;;-0.93;72.53
76864;BME280;65834;52.364;9.754;2023-02-26T05:30:22;101266.44;;;-1.11;72.90
76864;BME280;65834;52.364;9.754;2023-02-26T05:32:52;101275.97;;;-1.21;73.50
76864;BME280;65834;52.364;9.754;2023-02-26T05:35:21;101288.66;;;-1.26;73.81
76864;BME280;65834;52.364;9.754;2023-02-26T05:37:53;101286.09;;;-1.27;73.36
76864;BME280;65834;52.364;9.754;2023-02-26T05:40:23;101288.97;;;-1.30;73.63
76864;BME280;65834;52.364;9.754;2023-02-26T05:42:52;101291.50;;;-1.43;73.68
76864;BME280;65834;52.364;9.754;2023-02-26T05:45:22;101294.16;;;-1.43;73.95
76864;BME280;65834;52.364;9.754;2023-02-26T05:47:51;101302.13;;;-1.43;73.95
76864;BME280;65834;52.364;9.754;2023-02-26T05:50:20;101305.34;;;-1.52;74.01
76864;BME280;65834;52.364;9.754;2023-02-26T05:52:52;101300.03;;;-1.52;74.00
76864;BME280;65834;52.364;9.754;2023-02-26T05:55:22;101310.91;;;-1.56;73.96
76864;BME280;65834;52.364;9.754;2023-02-26T05:57:51;101310.44;;;-1.63;73.93
76864;BME280;65834;52.364;9.754;2023-02-26T06:00:21;101314.53;;;-1.57;73.84
76864;BME280;65834;52.364;9.754;2023-02-26T06:02:50;101320.59;;;-1.70;74.16
76864;BME280;65834;52.364;9.754;2023-02-26T06:05:20;101316.59;;;-1.63;73.97
76864;BME280;65834;52.364;9.754;2023-02-26T06:07:49;101325.22;;;-1.73;74.18
76864;BME280;65834;52.364;9.754;2023-02-26T06:10:21;101322.31;;;-1.84;74.59
76864;BME280;65834;52.364;9.754;2023-02-26T06:12:51;101337.28;;;-1.83;74.51
76864;BME280;65834;52.364;9.754;2023-02-26T06:15:20;101339.00;;;-1.82;74.04
76864;BME280;65834;52.364;9.754;2023-02-26T06:17:49;101342.03;;;-1.74;74.11
76864;BME280;65834;52.364;9.754;2023-02-26T06:20:19;101349.81;;;-1.85;73.91
76864;BME280;65834;52.364;9.754;2023-02-26T06:22:48;101351.66;;;-1.87;74.58
76864;BME280;65834;52.364;9.754;2023-02-26T06:25:20;101358.50;;;-1.83;74.45
76864;BME280;65834;52.364;9.754;2023-02-26T06:27:50;101355.72;;;-1.96;74.78
76864;BME280;65834;52.364;9.754;2023-02-26T06:30:19;101365.56;;;-1.98;74.63
76864;BME280;65834;52.364;9.754;2023-02-26T06:32:49;101372.56;;;-1.97;74.76
76864;BME280;65834;52.364;9.754;2023-02-26T06:35:18;101374.94;;;-1.92;74.53
76864;BME280;65834;52.364;9.754;2023-02-26T06:37:48;101371.88;;;-1.85;74.17
76864;BME280;65834;52.364;9.754;2023-02-26T06:40:17;101380.19;;;-1.91;74.56
76864;BME280;65834;52.364;9.754;2023-02-26T06:42:49;101375.34;;;-1.84;74.56
76864;BME280;65834;52.364;9.754;2023-02-26T06:45:19;101381.44;;;-1.82;74.25
76864;BME280;65834;52.364;9.754;2023-02-26T06:47:48;101387.22;;;-1.76;73.97
76864;BME280;65834;52.364;9.754;2023-02-26T06:50:17;101386.63;;;-1.81;74.17
76864;BME280;65834;52.364;9.754;2023-02-26T06:52:47;101392.78;;;-1.80;74.11
76864;BME280;65834;52.364;9.754;2023-02-26T06:55:16;101401.03;;;-1.85;74.23
76864;BME280;65834;52.364;9.754;2023-02-26T06:57:49;101402.16;;;-1.75;73.95
76864;BME280;65834;52.364;9.754;2023-02-26T07:00:20;101405.50;;;-1.71;74.13
76864;BME280;65834;52.364;9.754;2023-02-26T07:02:50;101416.16;;;-1.87;74.38
76864;BME280;65834;52.364;9.754;2023-02-26T07:05:19;101408.16;;;-1.71;74.01
76864;BME280;65834;52.364;9.754;2023-02-26T07:07:48;101424.19;;;-1.88;74.40
76864;BME280;65834;52.364;9.754;2023-02-26T07:10:18;101423.34;;;-1.89;74.69
76864;BME280;65834;52.364;9.754;2023-02-26T07:12:53;101437.00;;;-1.81;74.48
76864;BME280;65834;52.364;9.754;2023-02-26T07:15:22;101437.78;;;-1.79;74.56
76864;BME280;65834;52.364;9.754;2023-02-26T07:17:51;101453.69;;;-1.79;74.87
76864;BME280;65834;52.364;9.754;2023-02-26T07:20:21;101449.34;;;-1.66;74.33
76864;BME280;65834;52.364;9.754;2023-02-26T07:22:50;101451.81;;;-1.63;74.03
76864;BME280;65834;52.364;9.754;2023-02-26T07:25:20;101448.56;;;-1.52;73.85
76864;BME280;65834;52.364;9.754;2023-02-26T07:27:50;101458.69;;;-1.44;73.62
76864;BME280;65834;52.364;9.754;2023-02-26T07:30:22;101462.13;;;-1.42;73.01
76864;BME280;65834;52.364;9.754;2023-02-26T07:32:52;101470.28;;;-1.45;73.17
76864;BME280;65834;52.364;9.754;2023-02-26T07:35:21;101472.28;;;-1.35;73.21
76864;BME280;65834;52.364;9.754;2023-02-26T07:37:51;101484.19;;;-1.26;72.45
76864;BME280;65834;52.364;9.754;2023-02-26T07:40:20;101481.06;;;-1.04;72.08
76864;BME280;65834;52.364;9.754;2023-02-26T07:42:49;101472.09;;;-1.02;71.80
76864;BME280;65834;52.364;9.754;2023-02-26T07:45:21;101480.88;;;-1.16;72.00
76864;BME280;65834;52.364;9.754;2023-02-26T07:47:51;101490.97;;;-0.92;71.42
76864;BME280;65834;52.364;9.754;2023-02-26T07:50:21;101494.38;;;-0.76;70.93
76864;BME280;65834;52.364;9.754;2023-02-26T07:52:50;101490.59;;;-0.72;71.03
76864;BME280;65834;52.364;9.754;2023-02-26T07:55:20;101493.31;;;-0.74;70.47
76864;BME280;65834;52.364;9.754;2023-02-26T07:57:50;101508.81;;;-0.66;70.30
76864;BME280;65834;52.364;9.754;2023-02-26T08:00:22;101506.16;;;-0.66;70.08
76864;BME280;65834;52.364;9.754;2023-02-26T08:02:52;101514.22;;;-0.53;70.11
76864;BME280;65834;52.364;9.754;2023-02-26T08:05:21;101522.28;;;-0.41;69.67
76864;BME280;65834;52.364;9.754;2023-02-26T08:07:50;101520.78;;;-0.31;69.31
76864;BME280;65834;52.364;9.754;2023-02-26T08:10:20;101527.59;;;-0.27;69.13
76864;BME280;65834;52.364;9.754;2023-02-26T08:12:49;101525.78;;;-0.26;69.01
76864;BME280;65834;52.364;9.754;2023-02-26T08:15:19;101529.84;;;-0.21;68.29
76864;BME280;65834;52.364;9.754;2023-02-26T08:17:52;101530.31;;;-0.14;68.27
76864;BME280;65834;52.364;9.754;2023-02-26T08:20:22;101525.38;;;-0.06;68.05
76864;BME280;65834;52.364;9.754;2023-02-26T08:22:52;101527.66;;;0.00;67.69
76864;BME280;65834;52.364;9.754;2023-02-26T08:25:21;101539.50;;;0.09;67.15
76864;BME280;65834;52.364;9.754;2023-02-26T08:27:50;101547.44;;;0.23;66.46
76864;BME280;65834;52.364;9.754;2023-02-26T08:30:20;101547.56;;;0.21;66.27
76864;BME280;65834;52.364;9.754;2023-02-26T08:32:52;101560.00;;;0.21;66.48
76864;BME280;65834;52.364;9.754;2023-02-26T08:35:22;101560.75;;;0.23;66.13
76864;BME280;65834;52.364;9.754;2023-02-26T08:37:51;101563.94;;;0.28;65.59
76864;BME280;65834;52.364;9.754;2023-02-26T08:40:20;101569.00;;;0.32;65.81
76864;BME280;65834;52.364;9.754;2023-02-26T08:42:50;101568.31;;;0.43;65.54
76864;BME280;65834;52.364;9.754;2023-02-26T08:45:19;101567.78;;;0.50;64.38
76864;BME280;65834;52.364;9.754;2023-02-26T08:47:51;101577.84;;;0.60;64.11
76864;BME280;65834;52.364;9.754;2023-02-26T08:50:23;101574.03;;;0.64;63.72
76864;BME280;65834;52.364;9.754;2023-02-26T08:52:53;101582.25;;;0.46;63.77
76864;BME280;65834;52.364;9.754;2023-02-26T08:55:23;101582.22;;;0.61;63.54
76864;BME280;65834;52.364;9.754;2023-02-26T08:57:52;101584.69;;;0.64;63.59
76864;BME280;65834;52.364;9.754;2023-02-26T09:00:22;101591.31;;;0.71;63.40
76864;BME280;65834;52.364;9.754;2023-02-26T09:02:54;101598.78;;;0.78;63.20
76864;BME280;65834;52.364;9.754;2023-02-26T09:05:23;101597.47;;;0.71;63.15
76864;BME280;65834;52.364;9.754;2023-02-26T09:07:53;101607.44;;;0.82;63.21
76864;BME280;65834;52.364;9.754;2023-02-26T09:10:22;101616.41;;;0.93;63.03
76864;BME280;65834;52.364;9.754;2023-02-26T09:12:52;101610.13;;;0.94;62.89
76864;BME280;65834;52.364;9.754;2023-02-26T09:15:22;101610.19;;;1.07;62.56
76864;BME280;65834;52.364;9.754;2023-02-26T09:17:56;101612.81;;;0.94;62.29
76864;BME280;65834;52.364;9.754;2023-02-26T09:20:26;101611.88;;;1.08;62.32
76864;BME280;65834;52.364;9.754;2023-02-26T09:22:56;101612.59;;;0.97;61.83
76864;BME280;65834;52.364;9.754;2023-02-26T09:25:26;101619.03;;;1.07;62.15
76864;BME280;65834;52.364;9.754;2023-02-26T09:27:56;101613.63;;;1.22;61.25
76864;BME280;65834;52.364;9.754;2023-02-26T09:30:25;101615.22;;;1.24;60.54
76864;BME280;65834;52.364;9.754;2023-02-26T09:32:58;101625.78;;;1.26;60.45
76864;BME280;65834;52.364;9.754;2023-02-26T09:35:27;101626.75;;;1.37;59.55
76864;BME280;65834;52.364;9.754;2023-02-26T09:37:56;101616.53;;;1.31;58.17
76864;BME280;65834;52.364;9.754;2023-02-26T09:40:35;101619.72;;;1.36;57.84
76864;BME280;65834;52.364;9.754;2023-02-26T09:46:20;101626.72;;;1.25;57.54
76864;BME280;65834;52.364;9.754;2023-02-26T09:49:01;101625.50;;;1.43;57.39
76864;BME280;65834;52.364;9.754;2023-02-26T09:51:33;101636.06;;;1.44;58.20
76864;BME280;65834;52.364;9.754;2023-02-26T09:54:12;101623.78;;;1.54;57.88
76864;BME280;65834;52.364;9.754;2023-02-26T09:56:43;101622.94;;;1.54;56.34
76864;BME280;65834;52.364;9.754;2023-02-26T09:59:13;101633.50;;;1.55;56.35
76864;BME280;65834;52.364;9.754;2023-02-26T10:01:47;101633.72;;;1.65;56.59
76864;BME280;65834;52.364;9.754;2023-02-26T10:04:35;101640.34;;;1.59;55.69
76864;BME280;65834;52.364;9.754;2023-02-26T10:07:15;101646.94;;;1.67;56.07
76864;BME280;65834;52.364;9.754;2023-02-26T10:09:56;101647.72;;;1.69;55.45
76864;BME280;65834;52.364;9.754;2023-02-26T10:12:29;101652.25;;;1.54;54.79
76864;BME280;65834;52.364;9.754;2023-02-26T10:15:02;101652.41;;;1.65;53.59
76864;BME280;65834;52.364;9.754;2023-02-26T10:17:40;101659.44;;;1.79;53.02
76864;BME280;65834;52.364;9.754;2023-02-26T10:20:16;101662.66;;;1.96;53.37
76864;BME280;65834;52.364;9.754;2023-02-26T10:22:56;101658.69;;;2.14;52.80
76864;BME280;65834;52.364;9.754;2023-02-26T10:25:32;101665.94;;;2.12;52.70
76864;BME280;65834;52.364;9.754;2023-02-26T10:28:17;101664.25;;;2.11;51.27
76864;BME280;65834;52.364;9.754;2023-02-26T10:30:53;101667.34;;;2.31;51.26
76864;BME280;65834;52.364;9.754;2023-02-26T10:33:35;101667.50;;;2.40;51.32
76864;BME280;65834;52.364;9.754;2023-02-26T10:36:23;101669.19;;;2.54;51.84
76864;BME280;65834;52.364;9.754;2023-02-26T10:39:00;101677.41;;;2.63;51.36
76864;BME280;65834;52.364;9.754;2023-02-26T10:41:33;101671.22;;;2.87;51.10
76864;BME280;65834;52.364;9.754;2023-02-26T10:44:11;101673.00;;;2.62;50.40
76864;BME280;65834;52.364;9.754;2023-02-26T10:46:50;101671.25;;;2.74;49.82
76864;BME280;65834;52.364;9.754;2023-02-26T10:49:43;101677.34;;;2.89;48.85
76864;BME280;65834;52.364;9.754;2023-02-26T10:52:21;101685.63;;;3.20;48.36
76864;BME280;65834;52.364;9.754;2023-02-26T10:58:10;101680.16;;;3.46;46.94
76864;BME280;65834;52.364;9.754;2023-02-26T11:00:42;101686.56;;;3.32;47.83
76864;BME280;65834;52.364;9.754;2023-02-26T11:03:15;101684.03;;;3.18;48.42
76864;BME280;65834;52.364;9.754;2023-02-26T11:05:47;101693.25;;;3.38;48.42
76864;BME280;65834;52.364;9.754;2023-02-26T11:08:23;101692.19;;;3.86;47.12
76864;BME280;65834;52.364;9.754;2023-02-26T11:10:55;101696.88;;;4.28;44.89
76864;BME280;65834;52.364;9.754;2023-02-26T11:13:28;101694.44;;;4.59;44.33
76864;BME280;65834;52.364;9.754;2023-02-26T11:16:01;101687.63;;;4.44;42.91
76864;BME280;65834;52.364;9.754;2023-02-26T11:18:36;101694.91;;;4.75;43.94
76864;BME280;65834;52.364;9.754;2023-02-26T11:21:08;101698.03;;;5.02;43.96
76864;BME280;65834;52.364;9.754;2023-02-26T11:23:48;101697.88;;;5.15;43.04
76864;BME280;65834;52.364;9.754;2023-02-26T11:26:19;101697.97;;;5.24;41.03
76864;BME280;65834;52.364;9.754;2023-02-26T11:28:54;101705.56;;;5.19;41.78
76864;BME280;65834;52.364;9.754;2023-02-26T11:31:24;101699.25;;;5.09;42.50
76864;BME280;65834;52.364;9.754;2023-02-26T11:33:59;101710.28;;;5.38;42.14
76864;BME280;65834;52.364;9.754;2023-02-26T11:36:32;101704.00;;;5.17;40.53
76864;BME280;65834;52.364;9.754;2023-02-26T11:39:12;101705.84;;;5.05;41.51
76864;BME280;65834;52.364;9.754;2023-02-26T11:41:44;101699.44;;;4.74;41.87
76864;BME280;65834;52.364;9.754;2023-02-26T11:44:16;101714.19;;;4.58;42.39
76864;BME280;65834;52.364;9.754;2023-02-26T11:46:50;101706.25;;;4.78;42.88
76864;BME280;65834;52.364;9.754;2023-02-26T11:49:22;101702.91;;;5.08;42.41
76864;BME280;65834;52.364;9.754;2023-02-26T11:52:04;101707.34;;;5.30;40.74
76864;BME280;65834;52.364;9.754;2023-02-26T11:54:37;101705.31;;;5.54;39.13
76864;BME280;65834;52.364;9.754;2023-02-26T11:57:15;101706.94;;;5.45;40.41
76864;BME280;65834;52.364;9.754;2023-02-26T11:59:48;101713.66;;;5.72;40.84
76864;BME280;65834;52.364;9.754;2023-02-26T12:02:21;101708.59;;;5.58;41.28
76864;BME280;65834;52.364;9.754;2023-02-26T12:04:54;101698.84;;;5.14;41.23
76864;BME280;65834;52.364;9.754;2023-02-26T12:07:26;101698.25;;;5.21;41.09
76864;BME280;65834;52.364;9.754;2023-02-26T12:09:59;101702.91;;;5.08;40.90
76864;BME280;65834;52.364;9.754;2023-02-26T12:12:40;101699.09;;;4.57;41.30
76864;BME280;65834;52.364;9.754;2023-02-26T12:15:31;101709.41;;;4.95;42.10
76864;BME280;65834;52.364;9.754;2023-02-26T12:18:24;101706.97;;;5.66;40.95
76864;BME280;65834;52.364;9.754;2023-02-26T12:21:07;101704.28;;;5.66;39.32
76864;BME280;65834;52.364;9.754;2023-02-26T12:24:21;101706.06;;;7.67;35.20
76864;BME280;65834;52.364;9.754;2023-02-26T12:27:03;101711.50;;;15.67;24.57
76864;BME280;65834;52.364;9.754;2023-02-26T12:29:52;101713.91;;;17.15;21.43
76864;BME280;65834;52.364;9.754;2023-02-26T12:32:47;101710.31;;;15.04;22.50
76864;BME280;65834;52.364;9.754;2023-02-26T12:35:43;101706.56;;;14.61;22.45
76864;BME280;65834;52.364;9.754;2023-02-26T12:38:28;101712.75;;;12.88;25.87
76864;BME280;65834;52.364;9.754;2023-02-26T12:41:21;101710.59;;;12.76;26.24
76864;BME280;65834;52.364;9.754;2023-02-26T12:43:59;101704.13;;;13.24;25.14
76864;BME280;65834;52.364;9.754;2023-02-26T12:46:46;101704.41;;;12.98;25.46
76864;BME280;65834;52.364;9.754;2023-02-26T12:49:31;101713.91;;;13.41;26.80
76864;BME280;65834;52.364;9.754;2023-02-26T12:52:26;101708.53;;;12.07;27.77
76864;BME280;65834;52.364;9.754;2023-02-26T12:55:12;101716.47;;;10.68;28.46
76864;BME280;65834;52.364;9.754;2023-02-26T12:57:53;101712.28;;;10.22;31.35
76864;BME280;65834;52.364;9.754;2023-02-26T13:00:48;101705.81;;;14.97;23.93
76864;BME280;65834;52.364;9.754;2023-02-26T13:03:42;101717.00;;;17.06;20.48
76864;BME280;65834;52.364;9.754;2023-02-26T13:06:45;101720.25;;;20.08;18.06
76864;BME280;65834;52.364;9.754;2023-02-26T13:09:31;101706.63;;;19.19;17.67
76864;BME280;65834;52.364;9.754;2023-02-26T13:12:12;101725.09;;;22.12;16.37
76864;BME280;65834;52.364;9.754;2023-02-26T13:14:50;101710.31;;;21.95;15.70
76864;BME280;65834;52.364;9.754;2023-02-26T13:17:30;101708.84;;;21.63;15.99
76864;BME280;65834;52.364;9.754;2023-02-26T13:20:10;101711.81;;;25.20;14.06
76864;BME280;65834;52.364;9.754;2023-02-26T13:22:44;101714.88;;;21.90;16.43
76864;BME280;65834;52.364;9.754;2023-02-26T13:25:18;101708.81;;;21.22;17.08
76864;BME280;65834;52.364;9.754;2023-02-26T13:27:53;101707.50;;;21.84;15.18
76864;BME280;65834;52.364;9.754;2023-02-26T13:30:29;101713.22;;;21.71;14.85
76864;BME280;65834;52.364;9.754;2023-02-26T13:33:03;101715.34;;;17.72;17.60
76864;BME280;65834;52.364;9.754;2023-02-26T13:35:37;101711.72;;;17.52;18.61